createdAt,value
2016-08-08T00:00:04.410Z,1011.7
2016-08-08T00:00:14.416Z,1011.7
2016-08-08T00:00:23.682Z,1011.7
2016-08-08T00:00:34.428Z,1011.6
2016-08-08T00:00:43.705Z,1011.7
2016-08-08T00:00:54.438Z,1011.7
2016-08-08T00:01:04.452Z,1011.7
2016-08-08T00:01:13.727Z,1011.7
2016-08-08T00:01:24.455Z,1011.6
2016-08-08T00:01:34.461Z,1011.7
2016-08-08T00:01:44.468Z,1011.7
2016-08-08T00:01:54.475Z,1011.6
2016-08-08T00:02:03.759Z,1011.6
2016-08-08T00:02:14.484Z,1011.6
2016-08-08T00:02:24.497Z,1011.7
2016-08-08T00:02:33.762Z,1011.6
2016-08-08T00:02:44.507Z,1011.7
2016-08-08T00:02:53.780Z,1011.7
2016-08-08T00:03:04.513Z,1011.6
2016-08-08T00:03:14.523Z,1011.6
2016-08-08T00:03:24.530Z,1011.7
2016-08-08T00:03:34.534Z,1011.7
2016-08-08T00:03:44.541Z,1011.7
2016-08-08T00:03:54.548Z,1011.6
2016-08-08T00:04:04.553Z,1011.6
2016-08-08T00:04:13.095Z,1011.6
2016-08-08T00:04:24.562Z,1011.6
2016-08-08T00:04:34.571Z,1011.6
2016-08-08T00:04:44.573Z,1011.5
2016-08-08T00:04:53.843Z,1011.6
2016-08-08T00:05:03.859Z,1011.6
2016-08-08T00:05:13.861Z,1011.5
2016-08-08T00:05:24.597Z,1011.6
2016-08-08T00:05:34.606Z,1011.6
2016-08-08T00:05:44.607Z,1011.6
2016-08-08T00:05:54.625Z,1011.6
2016-08-08T00:06:03.891Z,1011.6
2016-08-08T00:06:14.627Z,1011.5
2016-08-08T00:06:23.907Z,1011.5
2016-08-08T00:06:34.641Z,1011.5
2016-08-08T00:06:43.917Z,1011.5
2016-08-08T00:06:54.654Z,1011.6
2016-08-08T00:07:04.663Z,1011.5
2016-08-08T00:07:14.664Z,1011.6
2016-08-08T00:07:23.941Z,1011.6
2016-08-08T00:07:33.938Z,1011.6
2016-08-08T00:07:43.944Z,1011.5
2016-08-08T00:07:54.686Z,1011.5
2016-08-08T00:08:04.694Z,1011.5
2016-08-08T00:08:14.700Z,1011.5
2016-08-08T00:08:24.702Z,1011.5
2016-08-08T00:08:34.710Z,1011.5
2016-08-08T00:08:44.719Z,1011.6
2016-08-08T00:08:54.724Z,1011.5
2016-08-08T00:09:04.731Z,1011.5
2016-08-08T00:09:14.742Z,1011.5
2016-08-08T00:09:23.273Z,1011.5
2016-08-08T00:09:34.745Z,1011.5
2016-08-08T00:09:44.755Z,1011.5
2016-08-08T00:09:54.759Z,1011.5
2016-08-08T00:10:04.767Z,1011.5
2016-08-08T00:10:14.033Z,1011.4
2016-08-08T00:10:24.050Z,1011.5
2016-08-08T00:10:34.784Z,1011.5
2016-08-08T00:10:44.790Z,1011.5
2016-08-08T00:10:54.792Z,1011.5
2016-08-08T00:11:04.806Z,1011.5
2016-08-08T00:11:14.808Z,1011.5
2016-08-08T00:11:24.810Z,1011.5
2016-08-08T00:11:44.826Z,1011.4
2016-08-08T00:11:54.091Z,1011.5
2016-08-08T00:12:04.839Z,1011.5
2016-08-08T00:12:14.844Z,1011.5
2016-08-08T00:12:24.844Z,1011.4
2016-08-08T00:12:34.848Z,1011.4
2016-08-08T00:12:44.863Z,1011.5
2016-08-08T00:12:54.139Z,1011.5
2016-08-08T00:13:04.873Z,1011.4
2016-08-08T00:13:14.877Z,1011.5
2016-08-08T00:13:24.884Z,1011.4
2016-08-08T00:13:34.888Z,1011.5
2016-08-08T00:13:44.159Z,1011.5
2016-08-08T00:13:54.899Z,1011.5
2016-08-08T00:14:04.179Z,1011.4
2016-08-08T00:14:14.912Z,1011.5
2016-08-08T00:14:24.922Z,1011.4
2016-08-08T00:14:34.923Z,1011.4
2016-08-08T00:14:44.928Z,1011.5
2016-08-08T00:14:54.938Z,1011.4
2016-08-08T00:15:04.942Z,1011.4
2016-08-08T00:15:14.952Z,1011.4
2016-08-08T00:15:24.954Z,1011.3
2016-08-08T00:15:34.231Z,1011.3
2016-08-08T00:15:44.967Z,1011.4
2016-08-08T00:15:54.974Z,1011.4
2016-08-08T00:16:04.976Z,1011.4
2016-08-08T00:16:14.980Z,1011.3
2016-08-08T00:16:24.251Z,1011.4
2016-08-08T00:16:34.995Z,1011.4
2016-08-08T00:16:45.000Z,1011.4
2016-08-08T00:16:55.009Z,1011.4
2016-08-08T00:17:04.282Z,1011.4
2016-08-08T00:17:14.294Z,1011.3
2016-08-08T00:17:25.029Z,1011.4
2016-08-08T00:17:35.035Z,1011.4
2016-08-08T00:17:45.037Z,1011.4
2016-08-08T00:17:54.313Z,1011.3
2016-08-08T00:18:05.053Z,1011.4
2016-08-08T00:18:14.324Z,1011.4
2016-08-08T00:18:25.064Z,1011.3
2016-08-08T00:18:35.066Z,1011.3
2016-08-08T00:18:45.071Z,1011.3
2016-08-08T00:18:55.077Z,1011.3
2016-08-08T00:19:05.082Z,1011.3
2016-08-08T00:19:15.090Z,1011.3
2016-08-08T00:19:24.357Z,1011.3
2016-08-08T00:19:35.112Z,1011.3
2016-08-08T00:19:55.116Z,1011.3
2016-08-08T00:20:04.394Z,1011.3
2016-08-08T00:20:14.389Z,1011.4
2016-08-08T00:20:25.128Z,1011.3
2016-08-08T00:20:34.401Z,1011.3
2016-08-08T00:20:45.141Z,1011.3
2016-08-08T00:20:55.149Z,1011.3
2016-08-08T00:21:05.154Z,1011.3
2016-08-08T00:21:15.161Z,1011.3
2016-08-08T00:21:24.429Z,1011.3
2016-08-08T00:21:35.174Z,1011.3
2016-08-08T00:21:45.176Z,1011.3
2016-08-08T00:21:55.186Z,1011.3
2016-08-08T00:22:05.191Z,1011.3
2016-08-08T00:22:15.204Z,1011.3
2016-08-08T00:22:25.202Z,1011.2
2016-08-08T00:22:35.208Z,1011.3
2016-08-08T00:22:44.480Z,1011.2
2016-08-08T00:22:55.221Z,1011.2
2016-08-08T00:23:04.495Z,1011.2
2016-08-08T00:23:15.241Z,1011.3
2016-08-08T00:23:24.506Z,1011.3
2016-08-08T00:23:34.513Z,1011.3
2016-08-08T00:23:45.247Z,1011.2
2016-08-08T00:23:55.256Z,1011.3
2016-08-08T00:24:05.265Z,1011.3
2016-08-08T00:24:15.265Z,1011.3
2016-08-08T00:24:25.270Z,1011.2
2016-08-08T00:24:35.279Z,1011.3
2016-08-08T00:24:44.554Z,1011.3
2016-08-08T00:24:54.553Z,1011.3
2016-08-08T00:25:04.567Z,1011.3
2016-08-08T00:25:15.303Z,1011.3
2016-08-08T00:25:24.578Z,1011.2
2016-08-08T00:25:35.313Z,1011.2
2016-08-08T00:25:45.318Z,1011.3
2016-08-08T00:25:55.326Z,1011.3
2016-08-08T00:26:05.337Z,1011.2
2016-08-08T00:26:15.339Z,1011.2
2016-08-08T00:26:25.342Z,1011.2
2016-08-08T00:26:55.365Z,1011.2
2016-08-08T00:27:05.367Z,1011.2
2016-08-08T00:27:15.380Z,1011.2
2016-08-08T00:27:25.377Z,1011.2
2016-08-08T00:27:35.384Z,1011.2
2016-08-08T00:27:44.655Z,1011.2
2016-08-08T00:27:55.398Z,1011.2
2016-08-08T00:28:05.401Z,1011.2
2016-08-08T00:28:13.946Z,1011.3
2016-08-08T00:28:25.415Z,1011.2
2016-08-08T00:28:35.422Z,1011.2
2016-08-08T00:28:45.424Z,1011.2
2016-08-08T00:28:55.432Z,1011.2
2016-08-08T00:29:05.439Z,1011.2
2016-08-08T00:29:14.719Z,1011.2
2016-08-08T00:29:24.722Z,1011.2
2016-08-08T00:29:34.724Z,1011.2
2016-08-08T00:29:44.724Z,1011.2
2016-08-08T00:29:55.470Z,1011.2
2016-08-08T00:30:05.477Z,1011.2
2016-08-08T00:30:15.481Z,1011.2
2016-08-08T00:30:25.486Z,1011.2
2016-08-08T00:30:34.764Z,1011.2
2016-08-08T00:30:45.497Z,1011.2
2016-08-08T00:30:55.510Z,1011.2
2016-08-08T00:31:04.769Z,1011.2
2016-08-08T00:31:15.515Z,1011.2
2016-08-08T00:31:25.529Z,1011.1
2016-08-08T00:31:34.799Z,1011.2
2016-08-08T00:31:45.539Z,1011.2
2016-08-08T00:31:55.546Z,1011.2
2016-08-08T00:32:04.814Z,1011.2
2016-08-08T00:32:15.556Z,1011.2
2016-08-08T00:32:25.556Z,1011.2
2016-08-08T00:32:35.562Z,1011.2
2016-08-08T00:32:45.582Z,1011.2
2016-08-08T00:32:55.580Z,1011.2
2016-08-08T00:33:05.578Z,1011.1
2016-08-08T00:33:15.584Z,1011.1
2016-08-08T00:33:25.592Z,1011.2
2016-08-08T00:33:34.861Z,1011.2
2016-08-08T00:33:45.608Z,1011.1
2016-08-08T00:33:55.610Z,1011.1
2016-08-08T00:34:04.889Z,1011.2
2016-08-08T00:34:15.621Z,1011.2
2016-08-08T00:34:25.635Z,1011.1
2016-08-08T00:34:35.640Z,1011.1
2016-08-08T00:34:45.641Z,1011.1
2016-08-08T00:34:54.915Z,1011.2
2016-08-08T00:35:05.655Z,1011.2
2016-08-08T00:35:14.926Z,1011.2
2016-08-08T00:35:25.669Z,1011.2
2016-08-08T00:35:35.671Z,1011.2
2016-08-08T00:35:44.937Z,1011.2
2016-08-08T00:35:54.958Z,1011.2
2016-08-08T00:36:04.949Z,1011.2
2016-08-08T00:36:14.963Z,1011.2
2016-08-08T00:36:25.700Z,1011.2
2016-08-08T00:36:34.974Z,1011.2
2016-08-08T00:36:44.974Z,1011.1
2016-08-08T00:36:55.721Z,1011.2
2016-08-08T00:37:05.720Z,1011.2
2016-08-08T00:37:15.736Z,1011.2
2016-08-08T00:37:25.003Z,1011.1
2016-08-08T00:37:35.013Z,1011.1
2016-08-08T00:37:45.008Z,1011.2
2016-08-08T00:37:55.756Z,1011.2
2016-08-08T00:38:05.029Z,1011.1
2016-08-08T00:38:15.764Z,1011.1
2016-08-08T00:38:25.768Z,1011.1
2016-08-08T00:38:35.775Z,1011.1
2016-08-08T00:38:45.049Z,1011.2
2016-08-08T00:38:55.791Z,1011.2
2016-08-08T00:39:05.794Z,1011.2
2016-08-08T00:39:15.798Z,1011.1
2016-08-08T00:39:25.806Z,1011.2
2016-08-08T00:39:35.812Z,1011.1
2016-08-08T00:39:45.821Z,1011.1
2016-08-08T00:39:55.824Z,1011.2
2016-08-08T00:40:05.829Z,1011.1
2016-08-08T00:40:15.104Z,1011.2
2016-08-08T00:40:25.850Z,1011.2
2016-08-08T00:40:35.848Z,1011.2
2016-08-08T00:40:45.116Z,1011.2
2016-08-08T00:40:55.118Z,1011.2
2016-08-08T00:41:05.866Z,1011.2
2016-08-08T00:41:15.140Z,1011.2
2016-08-08T00:41:25.870Z,1011.1
2016-08-08T00:41:55.893Z,1011.2
2016-08-08T00:42:05.170Z,1011.2
2016-08-08T00:42:14.446Z,1011.2
2016-08-08T00:42:25.915Z,1011.2
2016-08-08T00:42:35.916Z,1011.2
2016-08-08T00:42:45.201Z,1011.2
2016-08-08T00:42:55.934Z,1011.2
2016-08-08T00:43:05.935Z,1011.2
2016-08-08T00:43:15.945Z,1011.2
2016-08-08T00:43:25.951Z,1011.1
2016-08-08T00:43:35.955Z,1011.2
2016-08-08T00:43:45.959Z,1011.2
2016-08-08T00:43:55.964Z,1011.2
2016-08-08T00:44:05.978Z,1011.1
2016-08-08T00:44:15.989Z,1011.1
2016-08-08T00:44:25.251Z,1011.2
2016-08-08T00:44:35.996Z,1011.1
2016-08-08T00:44:45.995Z,1011.1
2016-08-08T00:44:56.006Z,1011.1
2016-08-08T00:45:05.283Z,1011.2
2016-08-08T00:45:16.012Z,1011.1
2016-08-08T00:45:26.026Z,1011.2
2016-08-08T00:45:36.022Z,1011.2
2016-08-08T00:45:45.305Z,1011.2
2016-08-08T00:45:55.298Z,1011.2
2016-08-08T00:46:06.045Z,1011.2
2016-08-08T00:46:15.316Z,1011.2
2016-08-08T00:46:26.055Z,1011.2
2016-08-08T00:46:36.058Z,1011.1
2016-08-08T00:46:46.065Z,1011.2
2016-08-08T00:46:56.072Z,1011.2
2016-08-08T00:47:06.081Z,1011.2
2016-08-08T00:47:15.354Z,1011.2
2016-08-08T00:47:26.087Z,1011.1
2016-08-08T00:47:36.095Z,1011.2
2016-08-08T00:47:46.107Z,1011.2
2016-08-08T00:47:55.374Z,1011.1
2016-08-08T00:48:06.113Z,1011.1
2016-08-08T00:48:16.127Z,1011.1
2016-08-08T00:48:25.386Z,1011.2
2016-08-08T00:48:36.130Z,1011.1
2016-08-08T00:48:46.139Z,1011.2
2016-08-08T00:48:56.142Z,1011.2
2016-08-08T00:49:06.144Z,1011.2
2016-08-08T00:49:15.423Z,1011.1
2016-08-08T00:49:26.159Z,1011.1
2016-08-08T00:49:36.165Z,1011.1
2016-08-08T00:49:46.170Z,1011.1
2016-08-08T00:49:56.179Z,1011.2
2016-08-08T00:50:05.459Z,1011.2
2016-08-08T00:50:16.189Z,1011.2
2016-08-08T00:50:25.461Z,1011.1
2016-08-08T00:50:36.208Z,1011.1
2016-08-08T00:50:46.207Z,1011.1
2016-08-08T00:50:56.212Z,1011.1
2016-08-08T00:51:05.479Z,1011.1
2016-08-08T00:51:16.221Z,1011.2
2016-08-08T00:51:26.232Z,1011.2
2016-08-08T00:51:36.238Z,1011.2
2016-08-08T00:51:46.250Z,1011.1
2016-08-08T00:51:56.250Z,1011.1
2016-08-08T00:52:06.258Z,1011.1
2016-08-08T00:52:16.266Z,1011.2
2016-08-08T00:52:26.271Z,1011.1
2016-08-08T00:52:36.272Z,1011.1
2016-08-08T00:52:46.277Z,1011.1
2016-08-08T00:52:56.286Z,1011.1
2016-08-08T00:53:06.287Z,1011.1
2016-08-08T00:53:14.829Z,1011.2
2016-08-08T00:53:26.302Z,1011.1
2016-08-08T00:53:36.308Z,1011.2
2016-08-08T00:53:46.313Z,1011.1
2016-08-08T00:53:55.597Z,1011.1
2016-08-08T00:54:06.322Z,1011.1
2016-08-08T00:54:16.330Z,1011.1
2016-08-08T00:54:26.337Z,1011.1
2016-08-08T00:54:36.347Z,1011.1
2016-08-08T00:54:45.620Z,1011.1
2016-08-08T00:54:56.354Z,1011.1
2016-08-08T00:55:06.359Z,1011.1
2016-08-08T00:55:16.366Z,1011.1
2016-08-08T00:55:26.373Z,1011.1
2016-08-08T00:55:36.380Z,1011.1
2016-08-08T00:55:46.390Z,1011.1
2016-08-08T00:55:55.661Z,1011.1
2016-08-08T00:56:06.398Z,1011.1
2016-08-08T00:56:15.669Z,1011
2016-08-08T00:56:26.412Z,1011.1
2016-08-08T00:56:35.677Z,1011.1
2016-08-08T00:56:55.699Z,1011.1
2016-08-08T00:57:05.701Z,1011.2
2016-08-08T00:57:16.433Z,1011.1
2016-08-08T00:57:26.445Z,1011.1
2016-08-08T00:57:36.453Z,1011.1
2016-08-08T00:57:46.457Z,1011.1
2016-08-08T00:57:55.736Z,1011.1
2016-08-08T00:58:06.471Z,1011.1
2016-08-08T00:58:16.470Z,1011.1
2016-08-08T00:58:25.742Z,1011.1
2016-08-08T00:58:36.482Z,1011.1
2016-08-08T00:58:46.494Z,1011.1
2016-08-08T00:58:56.498Z,1011.1
2016-08-08T00:59:06.498Z,1011.1
2016-08-08T00:59:16.516Z,1011.1
2016-08-08T00:59:26.521Z,1011.1
2016-08-08T00:59:36.523Z,1011.1
2016-08-08T00:59:46.522Z,1011.1
2016-08-08T00:59:56.536Z,1011
2016-08-08T01:00:06.538Z,1011.1
2016-08-08T01:00:15.814Z,1011.1
2016-08-08T01:00:26.550Z,1011.1
2016-08-08T01:00:36.559Z,1011
2016-08-08T01:00:46.563Z,1011.1
2016-08-08T01:00:56.564Z,1011.1
2016-08-08T01:01:06.573Z,1011
2016-08-08T01:01:15.841Z,1011.1
2016-08-08T01:01:26.590Z,1011.1
2016-08-08T01:01:36.590Z,1011.1
2016-08-08T01:01:46.602Z,1011
2016-08-08T01:01:56.601Z,1011
2016-08-08T01:02:06.609Z,1011
2016-08-08T01:02:16.621Z,1011.1
2016-08-08T01:02:26.621Z,1011
2016-08-08T01:02:36.629Z,1011
2016-08-08T01:02:46.636Z,1011
2016-08-08T01:02:56.656Z,1011
2016-08-08T01:03:05.912Z,1011
2016-08-08T01:03:15.920Z,1011
2016-08-08T01:03:26.656Z,1011
2016-08-08T01:03:36.664Z,1011
2016-08-08T01:03:46.667Z,1011
2016-08-08T01:03:56.672Z,1011
2016-08-08T01:04:06.680Z,1011
2016-08-08T01:04:16.687Z,1011
2016-08-08T01:04:26.685Z,1011
2016-08-08T01:04:35.966Z,1011
2016-08-08T01:04:46.704Z,1011
2016-08-08T01:04:56.710Z,1011
2016-08-08T01:05:06.720Z,1011
2016-08-08T01:05:16.728Z,1011
2016-08-08T01:05:25.997Z,1011
2016-08-08T01:05:35.994Z,1011
2016-08-08T01:05:46.740Z,1011
2016-08-08T01:05:56.746Z,1011.1
2016-08-08T01:06:06.016Z,1011.1
2016-08-08T01:06:16.756Z,1011
2016-08-08T01:06:26.027Z,1011
2016-08-08T01:06:36.042Z,1011
2016-08-08T01:06:46.779Z,1011
2016-08-08T01:06:56.055Z,1011
2016-08-08T01:07:06.789Z,1011
2016-08-08T01:07:16.063Z,1010.9
2016-08-08T01:07:26.071Z,1011
2016-08-08T01:07:36.801Z,1011
2016-08-08T01:07:46.810Z,1011
2016-08-08T01:07:56.084Z,1011
2016-08-08T01:08:06.826Z,1011
2016-08-08T01:08:16.830Z,1011
2016-08-08T01:08:26.838Z,1010.9
2016-08-08T01:08:36.109Z,1010.9
2016-08-08T01:08:46.847Z,1011
2016-08-08T01:08:56.121Z,1011
2016-08-08T01:09:06.857Z,1010.9
2016-08-08T01:09:16.861Z,1011
2016-08-08T01:09:26.870Z,1011
2016-08-08T01:09:36.875Z,1010.9
2016-08-08T01:09:46.159Z,1010.9
2016-08-08T01:09:56.157Z,1010.9
2016-08-08T01:10:06.166Z,1010.9
2016-08-08T01:10:16.903Z,1010.9
2016-08-08T01:10:26.904Z,1010.8
2016-08-08T01:10:36.915Z,1010.9
2016-08-08T01:10:46.915Z,1010.9
2016-08-08T01:10:56.932Z,1010.9
2016-08-08T01:11:06.930Z,1011
2016-08-08T01:11:16.197Z,1010.9
2016-08-08T01:11:26.936Z,1010.9
2016-08-08T01:11:46.221Z,1010.9
2016-08-08T01:11:56.958Z,1010.9
2016-08-08T01:12:06.962Z,1010.9
2016-08-08T01:12:16.969Z,1010.9
2016-08-08T01:12:26.973Z,1010.8
2016-08-08T01:12:36.980Z,1010.9
2016-08-08T01:12:47.006Z,1010.9
2016-08-08T01:12:56.991Z,1010.9
2016-08-08T01:13:06.258Z,1010.9
2016-08-08T01:13:17.006Z,1010.9
2016-08-08T01:13:26.290Z,1010.9
2016-08-08T01:13:37.017Z,1010.9
2016-08-08T01:13:47.040Z,1010.9
2016-08-08T01:13:57.028Z,1010.9
2016-08-08T01:14:06.301Z,1010.9
2016-08-08T01:14:16.309Z,1010.8
2016-08-08T01:14:27.047Z,1010.9
2016-08-08T01:14:36.324Z,1010.8
2016-08-08T01:14:47.060Z,1010.9
2016-08-08T01:14:57.072Z,1010.9
2016-08-08T01:15:07.071Z,1010.9
2016-08-08T01:15:17.074Z,1010.9
2016-08-08T01:15:27.083Z,1010.9
2016-08-08T01:15:37.089Z,1010.8
2016-08-08T01:15:46.374Z,1010.8
2016-08-08T01:15:57.105Z,1010.8
2016-08-08T01:16:07.103Z,1010.9
2016-08-08T01:16:17.110Z,1010.9
2016-08-08T01:16:26.381Z,1010.9
2016-08-08T01:16:37.127Z,1010.9
2016-08-08T01:16:46.391Z,1010.9
2016-08-08T01:16:56.404Z,1010.9
2016-08-08T01:17:07.139Z,1010.9
2016-08-08T01:17:16.409Z,1010.9
2016-08-08T01:17:27.162Z,1010.8
2016-08-08T01:17:37.157Z,1010.9
2016-08-08T01:17:47.167Z,1010.9
2016-08-08T01:17:56.433Z,1010.9
2016-08-08T01:18:07.182Z,1010.9
2016-08-08T01:18:17.184Z,1010.9
2016-08-08T01:18:27.189Z,1010.9
2016-08-08T01:18:36.468Z,1010.9
2016-08-08T01:18:47.205Z,1010.9
2016-08-08T01:18:56.472Z,1011
2016-08-08T01:19:06.472Z,1011
2016-08-08T01:19:17.219Z,1011
2016-08-08T01:19:27.229Z,1010.9
2016-08-08T01:19:37.230Z,1010.9
2016-08-08T01:19:47.239Z,1010.9
2016-08-08T01:19:57.239Z,1010.9
2016-08-08T01:20:07.245Z,1011
2016-08-08T01:20:17.254Z,1010.9
2016-08-08T01:20:27.257Z,1010.9
2016-08-08T01:20:36.533Z,1010.9
2016-08-08T01:20:46.548Z,1011
2016-08-08T01:20:57.276Z,1011
2016-08-08T01:21:07.282Z,1010.9
2016-08-08T01:21:16.558Z,1010.9
2016-08-08T01:21:27.298Z,1011
2016-08-08T01:21:37.302Z,1011
2016-08-08T01:21:47.308Z,1011
2016-08-08T01:21:56.580Z,1011
2016-08-08T01:22:06.590Z,1011
2016-08-08T01:22:17.322Z,1010.9
2016-08-08T01:22:27.331Z,1010.9
2016-08-08T01:22:37.338Z,1010.9
2016-08-08T01:22:46.614Z,1010.9
2016-08-08T01:22:57.347Z,1010.9
2016-08-08T01:23:07.353Z,1011
2016-08-08T01:23:17.363Z,1011
2016-08-08T01:23:27.372Z,1011
2016-08-08T01:23:36.639Z,1011
2016-08-08T01:23:47.377Z,1011
2016-08-08T01:23:57.385Z,1010.9
2016-08-08T01:24:07.398Z,1010.9
2016-08-08T01:24:16.664Z,1010.9
2016-08-08T01:24:27.398Z,1010.9
2016-08-08T01:24:36.677Z,1010.9
2016-08-08T01:24:46.678Z,1010.9
2016-08-08T01:24:57.421Z,1010.9
2016-08-08T01:25:07.427Z,1010.9
2016-08-08T01:25:17.432Z,1010.8
2016-08-08T01:25:26.701Z,1010.8
2016-08-08T01:25:36.713Z,1010.9
2016-08-08T01:25:47.450Z,1010.9
2016-08-08T01:25:57.453Z,1010.9
2016-08-08T01:26:06.002Z,1010.9
2016-08-08T01:26:17.463Z,1010.9
2016-08-08T01:26:27.470Z,1010.9
2016-08-08T01:26:37.481Z,1010.9
2016-08-08T01:26:56.129Z,1010.8
2016-08-08T01:27:06.756Z,1010.8
2016-08-08T01:27:17.500Z,1010.8
2016-08-08T01:27:27.503Z,1010.9
2016-08-08T01:27:37.518Z,1010.8
2016-08-08T01:27:46.788Z,1010.8
2016-08-08T01:27:57.526Z,1010.8
2016-08-08T01:28:06.800Z,1010.9
2016-08-08T01:28:17.537Z,1010.9
2016-08-08T01:28:26.812Z,1010.8
2016-08-08T01:28:37.552Z,1010.8
2016-08-08T01:28:47.548Z,1010.8
2016-08-08T01:28:56.820Z,1010.8
2016-08-08T01:29:07.565Z,1010.7
2016-08-08T01:29:17.575Z,1010.8
2016-08-08T01:29:26.110Z,1010.7
2016-08-08T01:29:37.582Z,1010.8
2016-08-08T01:29:47.593Z,1010.8
2016-08-08T01:29:57.591Z,1010.9
2016-08-08T01:30:07.602Z,1010.8
2016-08-08T01:30:16.878Z,1010.7
2016-08-08T01:30:27.612Z,1010.7
2016-08-08T01:30:36.890Z,1010.8
2016-08-08T01:30:46.166Z,1010.8
2016-08-08T01:30:57.634Z,1010.7
2016-08-08T01:31:07.637Z,1010.8
2016-08-08T01:31:17.648Z,1010.8
2016-08-08T01:31:27.648Z,1010.7
2016-08-08T01:31:36.198Z,1010.8
2016-08-08T01:31:47.664Z,1010.8
2016-08-08T01:31:57.666Z,1010.7
2016-08-08T01:32:07.671Z,1010.7
2016-08-08T01:32:17.688Z,1010.8
2016-08-08T01:32:27.685Z,1010.7
2016-08-08T01:32:37.691Z,1010.7
2016-08-08T01:32:47.696Z,1010.8
2016-08-08T01:32:57.708Z,1010.6
2016-08-08T01:33:07.708Z,1010.7
2016-08-08T01:33:17.714Z,1010.7
2016-08-08T01:33:27.721Z,1010.8
2016-08-08T01:33:37.728Z,1010.8
2016-08-08T01:33:47.733Z,1010.8
2016-08-08T01:33:57.737Z,1010.8
2016-08-08T01:34:07.742Z,1010.8
2016-08-08T01:34:17.750Z,1010.7
2016-08-08T01:34:27.757Z,1010.7
2016-08-08T01:34:37.768Z,1010.8
2016-08-08T01:34:47.767Z,1010.7
2016-08-08T01:34:57.771Z,1010.8
2016-08-08T01:35:07.776Z,1010.7
2016-08-08T01:35:17.784Z,1010.6
2016-08-08T01:35:27.791Z,1010.8
2016-08-08T01:35:37.796Z,1010.8
2016-08-08T01:35:47.803Z,1010.6
2016-08-08T01:35:57.808Z,1010.8
2016-08-08T01:36:07.819Z,1010.7
2016-08-08T01:36:17.820Z,1010.7
2016-08-08T01:36:27.828Z,1010.7
2016-08-08T01:36:37.110Z,1010.8
2016-08-08T01:36:47.114Z,1010.7
2016-08-08T01:36:57.843Z,1010.7
2016-08-08T01:37:07.852Z,1010.7
2016-08-08T01:37:17.123Z,1010.7
2016-08-08T01:37:27.863Z,1010.8
2016-08-08T01:37:37.871Z,1010.7
2016-08-08T01:37:47.141Z,1010.8
2016-08-08T01:37:57.157Z,1010.7
2016-08-08T01:38:07.886Z,1010.8
2016-08-08T01:38:17.164Z,1010.7
2016-08-08T01:38:27.897Z,1010.8
2016-08-08T01:38:37.907Z,1010.8
2016-08-08T01:38:47.906Z,1010.8
2016-08-08T01:38:57.918Z,1010.8
2016-08-08T01:39:07.926Z,1010.7
2016-08-08T01:39:17.927Z,1010.7
2016-08-08T01:39:27.203Z,1010.7
2016-08-08T01:39:37.941Z,1010.7
2016-08-08T01:39:47.946Z,1010.7
2016-08-08T01:39:57.951Z,1010.8
2016-08-08T01:40:07.962Z,1010.7
2016-08-08T01:40:17.962Z,1010.7
2016-08-08T01:40:27.978Z,1010.7
2016-08-08T01:40:37.977Z,1010.7
2016-08-08T01:40:47.982Z,1010.7
2016-08-08T01:40:57.986Z,1010.7
2016-08-08T01:41:07.993Z,1010.7
2016-08-08T01:41:17.999Z,1010.7
2016-08-08T01:41:28.006Z,1010.7
2016-08-08T01:41:38.014Z,1010.7
2016-08-08T01:42:07.296Z,1010.7
2016-08-08T01:42:18.033Z,1010.7
2016-08-08T01:42:27.303Z,1010.7
2016-08-08T01:42:38.046Z,1010.7
2016-08-08T01:42:48.054Z,1010.7
2016-08-08T01:42:58.067Z,1010.7
2016-08-08T01:43:08.060Z,1010.7
2016-08-08T01:43:17.338Z,1010.7
2016-08-08T01:43:27.348Z,1010.7
2016-08-08T01:43:38.087Z,1010.7
2016-08-08T01:43:47.363Z,1010.7
2016-08-08T01:43:57.360Z,1010.7
2016-08-08T01:44:07.361Z,1010.7
2016-08-08T01:44:18.107Z,1010.7
2016-08-08T01:44:28.111Z,1010.7
2016-08-08T01:44:37.389Z,1010.7
2016-08-08T01:44:48.121Z,1010.7
2016-08-08T01:44:58.129Z,1010.7
2016-08-08T01:45:08.134Z,1010.7
2016-08-08T01:45:18.142Z,1010.7
2016-08-08T01:45:28.147Z,1010.7
2016-08-08T01:45:38.153Z,1010.7
2016-08-08T01:45:47.429Z,1010.6
2016-08-08T01:45:58.167Z,1010.7
2016-08-08T01:46:07.440Z,1010.7
2016-08-08T01:46:18.177Z,1010.7
2016-08-08T01:46:28.187Z,1010.7
2016-08-08T01:46:37.453Z,1010.7
2016-08-08T01:46:47.465Z,1010.7
2016-08-08T01:46:58.204Z,1010.6
2016-08-08T01:47:08.207Z,1010.6
2016-08-08T01:47:18.214Z,1010.7
2016-08-08T01:47:28.218Z,1010.7
2016-08-08T01:47:38.222Z,1010.6
2016-08-08T01:47:48.232Z,1010.7
2016-08-08T01:47:58.235Z,1010.7
2016-08-08T01:48:07.519Z,1010.7
2016-08-08T01:48:17.518Z,1010.7
2016-08-08T01:48:28.252Z,1010.7
2016-08-08T01:48:38.263Z,1010.7
2016-08-08T01:48:48.267Z,1010.7
2016-08-08T01:48:58.269Z,1010.7
2016-08-08T01:49:07.548Z,1010.6
2016-08-08T01:49:18.288Z,1010.7
2016-08-08T01:49:27.561Z,1010.7
2016-08-08T01:49:37.557Z,1010.6
2016-08-08T01:49:48.302Z,1010.7
2016-08-08T01:49:58.310Z,1010.7
2016-08-08T01:50:08.311Z,1010.7
2016-08-08T01:50:18.318Z,1010.7
2016-08-08T01:50:28.334Z,1010.7
2016-08-08T01:50:37.594Z,1010.7
2016-08-08T01:50:48.337Z,1010.6
2016-08-08T01:50:57.616Z,1010.7
2016-08-08T01:51:07.613Z,1010.7
2016-08-08T01:51:18.353Z,1010.7
2016-08-08T01:51:28.356Z,1010.7
2016-08-08T01:51:38.368Z,1010.7
2016-08-08T01:51:48.376Z,1010.7
2016-08-08T01:51:57.640Z,1010.7
2016-08-08T01:52:08.386Z,1010.7
2016-08-08T01:52:18.388Z,1010.7
2016-08-08T01:52:27.665Z,1010.7
2016-08-08T01:52:37.672Z,1010.7
2016-08-08T01:52:48.408Z,1010.7
2016-08-08T01:52:58.420Z,1010.6
2016-08-08T01:53:08.423Z,1010.7
2016-08-08T01:53:18.427Z,1010.6
2016-08-08T01:53:28.429Z,1010.7
2016-08-08T01:53:38.439Z,1010.6
2016-08-08T01:53:47.705Z,1010.6
2016-08-08T01:53:57.725Z,1010.6
2016-08-08T01:54:07.715Z,1010.6
2016-08-08T01:54:17.737Z,1010.7
2016-08-08T01:54:27.739Z,1010.6
2016-08-08T01:54:38.478Z,1010.6
2016-08-08T01:54:48.480Z,1010.7
2016-08-08T01:54:58.489Z,1010.6
2016-08-08T01:55:08.491Z,1010.6
2016-08-08T01:55:18.499Z,1010.6
2016-08-08T01:55:28.504Z,1010.5
2016-08-08T01:55:37.772Z,1010.5
2016-08-08T01:55:48.512Z,1010.5
2016-08-08T01:55:58.524Z,1010.6
2016-08-08T01:56:08.528Z,1010.6
2016-08-08T01:56:18.535Z,1010.5
2016-08-08T01:56:27.808Z,1010.5
2016-08-08T01:56:38.543Z,1010.6
2016-08-08T01:57:08.564Z,1010.6
2016-08-08T01:57:17.118Z,1010.5
2016-08-08T01:57:28.575Z,1010.5
2016-08-08T01:57:38.595Z,1010.5
2016-08-08T01:57:47.849Z,1010.6
2016-08-08T01:57:58.589Z,1010.5
2016-08-08T01:58:08.597Z,1010.5
2016-08-08T01:58:18.605Z,1010.6
2016-08-08T01:58:28.610Z,1010.6
2016-08-08T01:58:38.615Z,1010.6
2016-08-08T01:58:47.894Z,1010.6
2016-08-08T01:58:58.630Z,1010.4
2016-08-08T01:59:07.897Z,1010.5
2016-08-08T01:59:17.909Z,1010.4
2016-08-08T01:59:27.910Z,1010.5
2016-08-08T01:59:38.652Z,1010.5
2016-08-08T01:59:48.658Z,1010.5
2016-08-08T01:59:58.675Z,1010.5
2016-08-08T02:00:08.667Z,1010.6
2016-08-08T02:00:18.684Z,1010.5
2016-08-08T02:00:28.684Z,1010.6
2016-08-08T02:00:38.690Z,1010.5
2016-08-08T02:00:47.961Z,1010.5
2016-08-08T02:00:58.699Z,1010.5
2016-08-08T02:01:07.975Z,1010.5
2016-08-08T02:01:18.709Z,1010.4
2016-08-08T02:01:28.717Z,1010.6
2016-08-08T02:01:38.724Z,1010.5
2016-08-08T02:01:48.730Z,1010.6
2016-08-08T02:01:58.006Z,1010.4
2016-08-08T02:02:08.739Z,1010.4
2016-08-08T02:02:18.744Z,1010.4
2016-08-08T02:02:28.751Z,1010.4
2016-08-08T02:02:38.758Z,1010.5
2016-08-08T02:02:48.034Z,1010.4
2016-08-08T02:02:58.041Z,1010.4
2016-08-08T02:03:08.779Z,1010.4
2016-08-08T02:03:18.780Z,1010.4
2016-08-08T02:03:28.057Z,1010.5
2016-08-08T02:03:38.795Z,1010.4
2016-08-08T02:03:48.803Z,1010.5
2016-08-08T02:03:58.806Z,1010.4
2016-08-08T02:04:08.814Z,1010.5
2016-08-08T02:04:18.078Z,1010.5
2016-08-08T02:04:28.822Z,1010.5
2016-08-08T02:04:38.829Z,1010.5
2016-08-08T02:04:48.843Z,1010.5
2016-08-08T02:04:58.115Z,1010.5
2016-08-08T02:05:08.119Z,1010.5
2016-08-08T02:05:18.856Z,1010.5
2016-08-08T02:05:28.863Z,1010.5
2016-08-08T02:05:38.863Z,1010.4
2016-08-08T02:05:48.874Z,1010.5
2016-08-08T02:05:58.880Z,1010.5
2016-08-08T02:06:08.885Z,1010.5
2016-08-08T02:06:18.156Z,1010.5
2016-08-08T02:06:28.894Z,1010.4
2016-08-08T02:06:38.902Z,1010.5
2016-08-08T02:06:48.908Z,1010.5
2016-08-08T02:06:58.183Z,1010.4
2016-08-08T02:07:07.450Z,1010.5
2016-08-08T02:07:18.930Z,1010.4
2016-08-08T02:07:28.943Z,1010.5
2016-08-08T02:07:38.937Z,1010.5